Time;durP1;ratioP1;P1;durP2;ratioP2;P2;SDS_P1;SDS_P2;PMS_P1;PMS_P2;Temp;Humidity;BMP_temperature;BMP_pressure;BME280_temperature;BME280_humidity;BME280_pressure;Samples;Min_cycle;Max_cycle;Signal;HPM_P1;HPM_P2
2022/03/17 00:01:18;;;;;;;21.55;11.45;;;13.30;89.10;;;;;;4951208;28;20040;-67
2022/03/17 00:03:45;;;;;;;29.88;15.13;;;13.30;89.40;;;;;;4940499;28;20042;-67
2022/03/17 00:06:13;;;;;;;23.77;13.65;;;13.30;89.30;;;;;;4932137;28;20043;-67
2022/03/17 00:08:39;;;;;;;20.55;11.20;;;13.30;88.80;;;;;;4944209;28;20039;-67
2022/03/17 00:11:05;;;;;;;27.90;14.73;;;13.30;89.20;;;;;;4951926;28;20027;-67
2022/03/17 00:13:31;;;;;;;23.08;12.25;;;13.30;88.60;;;;;;4951041;28;20371;-67
2022/03/17 00:15:57;;;;;;;24.40;14.23;;;13.30;88.60;;;;;;4951926;28;20414;-67
2022/03/17 00:18:23;;;;;;;25.92;14.30;;;13.30;88.70;;;;;;4952018;28;20126;-67
2022/03/17 00:20:49;;;;;;;28.02;15.05;;;13.30;88.40;;;;;;4951111;28;20039;-67
2022/03/17 00:23:14;;;;;;;27.95;14.60;;;13.30;88.90;;;;;;4951840;28;20039;-67
2022/03/17 00:25:40;;;;;;;24.63;12.05;;;13.30;88.40;;;;;;4951996;28;20035;-67
2022/03/17 00:28:07;;;;;;;25.45;11.82;;;13.20;89.10;;;;;;4950059;28;20046;-67
2022/03/17 00:30:34;;;;;;;26.35;13.38;;;13.30;89.30;;;;;;4939779;28;20019;-66
2022/03/17 00:32:59;;;;;;;22.77;12.77;;;13.20;89.00;;;;;;4949678;28;20130;-67
2022/03/17 00:35:42;;;;;;;23.73;13.35;;;13.20;88.90;;;;;;4982469;28;20051;-67
2022/03/17 00:38:14;;;;;;;25.93;13.37;;;13.20;88.80;;;;;;4952503;28;20036;-67
2022/03/17 00:40:42;;;;;;;24.90;15.05;;;13.20;88.80;;;;;;4937824;28;20075;-67
2022/03/17 00:43:11;;;;;;;29.50;16.40;;;13.20;88.70;;;;;;4951371;28;20036;-66
2022/03/17 00:45:41;;;;;;;27.70;13.98;;;13.20;88.20;;;;;;4951226;28;20070;-67
2022/03/17 00:48:07;;;;;;;28.40;14.30;;;13.20;89.10;;;;;;4950403;28;20031;-67
2022/03/17 00:50:34;;;;;;;31.33;14.80;;;13.20;88.60;;;;;;4951461;28;20415;-66
2022/03/17 00:53:00;;;;;;;26.35;14.90;;;13.10;88.40;;;;;;4950272;28;20434;-66
2022/03/17 00:55:26;;;;;;;19.30;11.10;;;13.10;88.30;;;;;;4943681;28;20036;-67
2022/03/17 00:57:52;;;;;;;30.55;15.48;;;13.10;88.70;;;;;;4945241;28;20403;-66
2022/03/17 01:00:20;;;;;;;26.42;13.82;;;13.10;88.40;;;;;;4951413;28;20085;-66
2022/03/17 01:02:51;;;;;;;22.50;12.88;;;13.10;88.40;;;;;;4950351;28;20035;-67
2022/03/17 01:05:17;;;;;;;27.05;15.23;;;13.10;88.60;;;;;;4951440;28;20045;-67
2022/03/17 01:07:44;;;;;;;25.02;14.15;;;13.10;88.70;;;;;;4950824;28;20118;-67
2022/03/17 01:10:12;;;;;;;25.80;14.32;;;13.10;89.00;;;;;;4950672;28;20077;-67
2022/03/17 01:12:38;;;;;;;27.45;14.35;;;13.10;88.70;;;;;;4950605;28;20055;-67
2022/03/17 01:15:05;;;;;;;28.92;16.25;;;13.10;88.80;;;;;;4938450;28;20045;-67
2022/03/17 01:17:31;;;;;;;24.27;11.60;;;13.10;88.80;;;;;;4937771;28;20038;-66
2022/03/17 01:19:56;;;;;;;25.05;13.18;;;13.10;89.10;;;;;;4950528;28;20118;-67
2022/03/17 01:22:23;;;;;;;24.65;13.02;;;13.10;88.80;;;;;;4950037;28;20081;-67
2022/03/17 01:24:51;;;;;;;30.77;16.00;;;13.10;89.00;;;;;;4949980;28;20035;-67
2022/03/17 01:27:20;;;;;;;27.67;12.77;;;13.10;89.00;;;;;;4939547;28;20031;-67
2022/03/17 01:29:52;;;;;;;29.58;15.23;;;13.10;89.20;;;;;;4949873;28;20252;-67
2022/03/17 01:32:18;;;;;;;34.42;15.15;;;13.10;88.90;;;;;;4950912;28;20051;-66
2022/03/17 01:34:44;;;;;;;24.30;14.18;;;13.10;89.00;;;;;;4996901;28;20062;-67
2022/03/17 01:37:10;;;;;;;26.90;13.25;;;13.10;89.20;;;;;;4944818;28;20047;-67
2022/03/17 01:39:36;;;;;;;25.25;12.98;;;13.10;89.40;;;;;;4956400;28;20473;-66
2022/03/17 01:42:04;;;;;;;31.42;15.70;;;13.10;89.20;;;;;;4950518;28;20027;-67
2022/03/17 01:44:29;;;;;;;31.58;17.25;;;13.10;88.70;;;;;;4948971;28;20122;-67
2022/03/17 01:49:41;;;;;;;28.38;16.38;;;13.00;88.80;;;;;;4986570;28;20032;-66
2022/03/17 01:52:06;;;;;;;27.13;13.13;;;13.00;89.00;;;;;;4949527;28;20074;-67
2022/03/17 01:54:36;;;;;;;32.67;16.13;;;13.00;88.90;;;;;;5006789;28;20068;-67
2022/03/17 01:57:03;;;;;;;25.90;13.48;;;13.00;88.80;;;;;;4931172;28;20127;-67
2022/03/17 01:59:31;;;;;;;25.85;15.05;;;13.00;88.90;;;;;;4945649;28;20066;-67
2022/03/17 02:01:57;;;;;;;26.90;13.88;;;13.00;88.60;;;;;;4971147;28;20357;-67
2022/03/17 02:04:24;;;;;;;26.10;13.18;;;13.00;88.70;;;;;;4963999;28;20038;-66
2022/03/17 02:06:50;;;;;;;28.77;14.50;;;13.00;88.60;;;;;;4944712;28;20489;-67
2022/03/17 02:09:18;;;;;;;28.95;14.60;;;13.00;88.70;;;;;;4931336;28;20051;-66
2022/03/17 02:14:28;;;;;;;33.30;15.88;;;13.00;88.30;;;;;;4949852;28;20078;-67
2022/03/17 02:16:54;;;;;;;29.35;15.00;;;13.00;88.70;;;;;;4950410;28;20059;-66
2022/03/17 02:19:23;;;;;;;28.85;14.45;;;13.00;88.20;;;;;;4970074;28;20065;-67
2022/03/17 02:21:52;;;;;;;29.00;15.68;;;13.00;88.50;;;;;;4949997;28;20039;-66
2022/03/17 02:27:03;;;;;;;30.90;16.08;;;13.00;88.40;;;;;;4937894;28;20070;-67
2022/03/17 02:29:30;;;;;;;28.33;14.18;;;13.00;88.40;;;;;;4950038;28;20111;-67
2022/03/17 02:31:56;;;;;;;26.52;13.55;;;13.00;88.50;;;;;;4995621;28;20048;-67
2022/03/17 02:34:22;;;;;;;25.38;13.85;;;13.00;88.50;;;;;;4993807;28;20042;-67
2022/03/17 02:36:50;;;;;;;23.95;12.77;;;12.90;88.60;;;;;;4973036;28;20453;-67
2022/03/17 02:39:21;;;;;;;31.15;15.43;;;13.00;88.50;;;;;;4993781;28;20052;-66
2022/03/17 02:41:47;;;;;;;33.13;16.13;;;13.00;88.50;;;;;;4969517;28;20082;-66
2022/03/17 02:44:13;;;;;;;36.63;15.48;;;12.90;88.40;;;;;;4950375;28;20481;-67
2022/03/17 02:46:39;;;;;;;27.13;12.93;;;13.00;88.80;;;;;;4948857;28;20031;-66
2022/03/17 02:49:05;;;;;;;26.33;13.95;;;13.00;89.20;;;;;;4973975;28;20043;-66
2022/03/17 02:51:31;;;;;;;23.15;13.68;;;13.00;89.30;;;;;;4933818;28;20036;-67
2022/03/17 02:53:57;;;;;;;24.83;14.25;;;13.00;89.20;;;;;;4996066;28;20533;-67
2022/03/17 02:56:23;;;;;;;29.58;12.65;;;13.00;89.20;;;;;;4947484;28;20099;-67
2022/03/17 02:58:49;;;;;;;31.05;15.93;;;13.00;89.40;;;;;;4930762;28;20051;-66
2022/03/17 03:01:14;;;;;;;29.20;15.55;;;13.10;89.50;;;;;;4936423;28;20528;-67
2022/03/17 03:03:40;;;;;;;16.48;8.65;;;13.00;89.70;;;;;;4949435;28;20054;-67
2022/03/17 03:06:06;;;;;;;15.15;8.35;;;13.00;89.70;;;;;;4981689;28;20031;-67
2022/03/17 03:08:33;;;;;;;23.98;11.20;;;13.00;90.00;;;;;;4948788;28;20039;-66
2022/03/17 03:10:59;;;;;;;30.65;15.93;;;13.00;90.10;;;;;;4952088;28;20487;-67
2022/03/17 03:13:25;;;;;;;28.15;14.70;;;13.00;90.00;;;;;;4952660;28;20126;-67
2022/03/17 03:15:50;;;;;;;24.50;12.52;;;13.00;90.00;;;;;;4952170;28;20071;-66
2022/03/17 03:18:17;;;;;;;28.05;14.52;;;13.00;90.00;;;;;;4951215;28;20043;-67
2022/03/17 03:20:43;;;;;;;25.67;13.93;;;13.00;90.00;;;;;;4941743;28;20514;-66
2022/03/17 03:23:09;;;;;;;28.42;14.80;;;13.00;90.10;;;;;;4949965;28;20118;-67
2022/03/17 03:25:34;;;;;;;31.10;16.83;;;13.10;90.10;;;;;;4942214;28;20042;-66
2022/03/17 03:28:09;;;;;;;28.50;15.05;;;13.00;89.90;;;;;;4952626;28;20063;-67
2022/03/17 03:30:36;;;;;;;29.30;11.68;;;13.00;89.80;;;;;;4951911;28;20475;-66
2022/03/17 03:33:03;;;;;;;13.23;6.95;;;13.00;90.10;;;;;;4956159;28;20051;-67
2022/03/17 03:38:13;;;;;;;25.63;13.65;;;13.10;90.10;;;;;;4972680;28;20029;-67
2022/03/17 03:40:39;;;;;;;28.73;15.00;;;13.10;90.30;;;;;;4958982;28;20033;-66
2022/03/17 03:43:04;;;;;;;29.55;15.82;;;13.10;90.20;;;;;;4995154;28;20727;-66
2022/03/17 03:45:30;;;;;;;28.55;15.95;;;13.10;90.20;;;;;;4952271;28;20031;-66
2022/03/17 03:47:55;;;;;;;24.17;13.85;;;13.10;90.10;;;;;;4942610;28;20031;-66
2022/03/17 03:50:21;;;;;;;25.48;11.80;;;13.10;90.20;;;;;;4970500;28;20484;-67
2022/03/17 03:52:47;;;;;;;29.48;15.40;;;13.10;90.30;;;;;;4950214;28;20051;-67
2022/03/17 03:55:12;;;;;;;22.35;12.13;;;13.10;90.20;;;;;;5005072;28;20043;-67
2022/03/17 03:57:38;;;;;;;30.67;16.58;;;13.10;90.30;;;;;;4951345;28;20028;-67
2022/03/17 04:02:44;;;;;;;17.13;7.93;;;13.10;90.20;;;;;;4951893;28;20041;-66
2022/03/17 04:05:10;;;;;;;20.83;11.85;;;13.20;90.30;;;;;;4951590;28;20032;-66
2022/03/17 04:07:37;;;;;;;15.73;7.35;;;13.20;90.40;;;;;;4969740;28;20553;-66
2022/03/17 04:10:04;;;;;;;22.98;11.40;;;13.20;90.30;;;;;;4952065;28;20031;-67
2022/03/17 04:12:29;;;;;;;27.73;14.85;;;13.20;90.40;;;;;;4938617;28;20070;-67
2022/03/17 04:14:56;;;;;;;28.30;14.82;;;13.20;90.40;;;;;;4951824;28;20471;-66
2022/03/17 04:17:21;;;;;;;15.10;7.93;;;13.20;90.40;;;;;;4945033;28;20031;-66
2022/03/17 04:19:47;;;;;;;18.00;9.55;;;13.30;90.50;;;;;;4945628;28;20077;-67
2022/03/17 04:22:13;;;;;;;27.63;14.82;;;13.20;90.50;;;;;;4951670;28;20532;-67
2022/03/17 04:24:38;;;;;;;28.13;14.80;;;13.30;90.50;;;;;;4950426;28;20667;-67
2022/03/17 04:27:06;;;;;;;17.20;9.38;;;13.30;90.50;;;;;;4938935;28;20050;-66
2022/03/17 04:29:32;;;;;;;20.38;10.48;;;13.30;90.60;;;;;;4950193;28;20488;-67
2022/03/17 04:31:58;;;;;;;28.02;14.25;;;13.30;90.60;;;;;;4932620;28;20040;-67
2022/03/17 04:34:24;;;;;;;20.08;8.73;;;13.30;90.60;;;;;;4944618;28;20043;-67
2022/03/17 04:36:50;;;;;;;28.77;14.65;;;13.30;90.70;;;;;;4940126;28;20473;-67
2022/03/17 04:39:16;;;;;;;25.90;12.23;;;13.40;90.80;;;;;;4968126;28;20078;-67
2022/03/17 04:41:41;;;;;;;24.75;14.90;;;13.30;90.90;;;;;;4958154;28;20043;-67
2022/03/17 04:44:08;;;;;;;24.90;10.20;;;13.30;91.10;;;;;;4949903;28;20603;-67
2022/03/17 04:46:34;;;;;;;18.08;10.27;;;13.30;91.40;;;;;;4940222;28;20028;-67
2022/03/17 04:49:00;;;;;;;11.40;5.60;;;13.30;91.60;;;;;;4949163;28;20398;-67
2022/03/17 04:51:26;;;;;;;16.05;8.95;;;13.20;91.90;;;;;;4941412;28;20055;-67
2022/03/17 04:53:51;;;;;;;28.42;13.32;;;13.20;92.00;;;;;;5000616;28;20551;-66
2022/03/17 04:56:17;;;;;;;27.70;14.90;;;13.10;92.20;;;;;;4947320;28;20062;-67
2022/03/17 04:58:44;;;;;;;19.45;9.25;;;13.10;92.40;;;;;;4950237;28;20055;-67
2022/03/17 05:01:15;;;;;;;13.55;6.72;;;13.00;92.50;;;;;;4950341;28;20493;-67
2022/03/17 05:03:41;;;;;;;20.55;9.10;;;13.00;92.70;;;;;;4950311;28;20078;-67
2022/03/17 05:06:14;;;;;;;12.00;6.43;;;13.00;92.90;;;;;;4950795;28;20055;-67
2022/03/17 05:08:40;;;;;;;11.57;6.30;;;13.00;93.10;;;;;;4950294;28;20410;-67
2022/03/17 05:11:07;;;;;;;14.48;7.63;;;12.90;93.30;;;;;;4951662;28;20122;-67
2022/03/17 05:13:33;;;;;;;21.33;10.32;;;12.90;93.40;;;;;;4949937;28;20141;-67
2022/03/17 05:15:59;;;;;;;23.95;10.40;;;12.80;93.50;;;;;;4950418;28;20694;-66
2022/03/17 05:18:25;;;;;;;23.55;12.43;;;12.80;93.60;;;;;;4950985;28;20077;-66
2022/03/17 05:20:51;;;;;;;20.60;11.00;;;12.80;93.70;;;;;;4966804;28;20065;-67
2022/03/17 05:23:19;;;;;;;18.63;11.52;;;12.80;93.80;;;;;;4971344;28;20035;-67
2022/03/17 05:25:47;;;;;;;20.23;9.02;;;12.70;93.90;;;;;;5028546;28;20079;-67
2022/03/17 05:28:13;;;;;;;24.02;13.25;;;12.70;94.00;;;;;;4996226;28;20593;-66
2022/03/17 05:30:40;;;;;;;22.20;12.40;;;12.60;94.10;;;;;;4983281;28;20118;-66
2022/03/17 05:33:07;;;;;;;22.30;13.23;;;12.60;94.30;;;;;;5029226;28;20370;-66
2022/03/17 05:35:35;;;;;;;24.25;13.48;;;12.60;94.60;;;;;;4948562;28;20036;-67
2022/03/17 05:38:01;;;;;;;25.02;12.50;;;12.50;94.80;;;;;;4931672;28;20039;-66
2022/03/17 05:40:27;;;;;;;19.77;11.77;;;12.50;95.00;;;;;;5009921;28;20114;-67
2022/03/17 05:42:56;;;;;;;13.77;6.63;;;12.40;95.30;;;;;;5005871;28;20083;-68
2022/03/17 05:45:24;;;;;;;7.28;4.80;;;12.20;95.50;;;;;;4976875;28;20085;-69
2022/03/17 05:47:52;;;;;;;7.05;4.30;;;12.00;95.80;;;;;;4974745;28;20032;-69
2022/03/17 05:50:21;;;;;;;6.43;3.95;;;11.80;95.90;;;;;;4977421;28;20038;-70
2022/03/17 05:52:48;;;;;;;7.70;4.63;;;11.80;96.10;;;;;;5000271;28;20044;-69
2022/03/17 05:55:19;;;;;;;5.63;3.63;;;11.70;96.20;;;;;;4948177;28;20085;-68
2022/03/17 05:57:46;;;;;;;4.25;3.22;;;11.60;96.30;;;;;;4941954;28;20150;-69
2022/03/17 06:00:16;;;;;;;6.45;4.13;;;11.60;96.40;;;;;;4994073;28;20029;-66
2022/03/17 06:02:42;;;;;;;6.57;3.83;;;11.50;96.40;;;;;;4998683;28;20043;-66
2022/03/17 06:05:14;;;;;;;6.55;4.22;;;11.40;96.40;;;;;;4991277;28;20025;-66
2022/03/17 06:07:45;;;;;;;14.00;6.90;;;11.40;96.40;;;;;;5002944;28;20052;-67
2022/03/17 06:10:39;;;;;;;13.82;7.72;;;11.30;96.40;;;;;;4980330;28;20366;-67
2022/03/17 06:13:06;;;;;;;15.07;5.97;;;11.20;96.50;;;;;;4952683;28;20131;-67
2022/03/17 06:15:34;;;;;;;14.20;5.43;;;11.20;96.50;;;;;;4951719;28;20475;-69
2022/03/17 06:18:02;;;;;;;13.07;6.05;;;11.10;96.50;;;;;;4954911;28;20046;-67
2022/03/17 06:20:30;;;;;;;16.08;6.43;;;11.20;96.40;;;;;;4953848;28;20043;-68
2022/03/17 06:23:01;;;;;;;9.60;4.68;;;11.20;96.40;;;;;;5007095;28;20112;-67
2022/03/17 06:25:29;;;;;;;12.80;4.40;;;11.10;96.40;;;;;;4946490;28;20043;-67
2022/03/17 06:27:54;;;;;;;3.72;2.38;;;11.10;96.30;;;;;;4943689;28;20042;-66
2022/03/17 06:30:26;;;;;;;5.65;2.97;;;11.10;96.30;;;;;;4959363;28;20043;-67
2022/03/17 06:32:52;;;;;;;9.55;3.50;;;11.20;96.20;;;;;;4944338;28;20578;-66
2022/03/17 06:35:20;;;;;;;12.40;6.15;;;11.20;96.00;;;;;;4967792;28;20135;-66
2022/03/17 06:37:49;;;;;;;12.43;5.20;;;11.20;95.90;;;;;;4971076;28;20029;-66
2022/03/17 06:40:16;;;;;;;12.63;4.43;;;11.20;95.90;;;;;;4953284;28;20109;-66
2022/03/17 06:42:44;;;;;;;9.35;3.55;;;11.10;95.80;;;;;;4977442;28;20152;-66
2022/03/17 06:45:10;;;;;;;10.95;3.20;;;11.10;95.80;;;;;;4957944;28;20371;-70
2022/03/17 06:47:36;;;;;;;7.07;2.58;;;11.00;95.90;;;;;;4989513;28;20173;-66
2022/03/17 06:50:02;;;;;;;10.18;2.40;;;11.00;95.90;;;;;;4986864;28;20148;-67
2022/03/17 06:52:28;;;;;;;12.27;2.70;;;10.90;95.90;;;;;;4992991;28;20050;-66
2022/03/17 06:54:53;;;;;;;9.95;2.90;;;10.90;96.00;;;;;;4975844;28;20076;-67
2022/03/17 06:57:20;;;;;;;5.45;2.03;;;10.80;96.00;;;;;;4957580;28;20032;-65
2022/03/17 06:59:48;;;;;;;5.63;1.77;;;10.80;96.00;;;;;;4951501;28;20699;-65
2022/03/17 07:02:14;;;;;;;6.97;1.77;;;10.80;95.90;;;;;;4952123;28;20046;-65
2022/03/17 07:04:39;;;;;;;3.83;1.75;;;10.90;95.90;;;;;;4949474;28;20039;-66
2022/03/17 07:07:06;;;;;;;5.57;1.50;;;10.90;95.90;;;;;;4933412;28;20369;-65
2022/03/17 07:09:31;;;;;;;5.07;1.70;;;10.80;95.80;;;;;;4949938;28;20020;-66
2022/03/17 07:11:57;;;;;;;6.35;1.60;;;10.90;95.80;;;;;;4951596;28;20058;-66
2022/03/17 07:14:23;;;;;;;8.05;2.50;;;10.80;95.60;;;;;;4934957;28;20085;-65
2022/03/17 07:16:48;;;;;;;12.73;2.25;;;10.80;95.50;;;;;;4933874;28;20036;-65
2022/03/17 07:19:15;;;;;;;4.85;1.83;;;10.70;95.50;;;;;;4950554;28;20096;-65
2022/03/17 07:21:47;;;;;;;2.90;1.42;;;10.60;95.60;;;;;;4951933;28;20051;-66
2022/03/17 07:24:13;;;;;;;7.38;1.95;;;10.60;95.70;;;;;;4952987;28;20114;-65
2022/03/17 07:26:42;;;;;;;3.17;1.48;;;10.60;95.60;;;;;;4952373;28;20051;-65
2022/03/17 07:29:08;;;;;;;7.97;1.70;;;10.60;95.60;;;;;;4951900;28;20035;-65
2022/03/17 07:31:34;;;;;;;5.18;0.95;;;10.60;95.70;;;;;;4952001;28;20444;-65
2022/03/17 07:34:00;;;;;;;4.13;1.33;;;10.50;95.60;;;;;;4952363;28;20054;-66
2022/03/17 07:36:27;;;;;;;5.75;1.70;;;10.60;95.60;;;;;;4951690;28;20510;-66
2022/03/17 07:38:57;;;;;;;7.38;1.48;;;10.60;95.50;;;;;;4964255;28;20032;-65
2022/03/17 07:41:23;;;;;;;6.72;1.48;;;10.50;95.40;;;;;;4989212;28;20040;-66
2022/03/17 07:43:49;;;;;;;5.28;1.58;;;10.60;95.40;;;;;;4951787;28;20093;-65
2022/03/17 07:46:35;;;;;;;2.92;1.00;;;10.60;95.30;;;;;;4952204;28;20475;-65
2022/03/17 07:49:16;;;;;;;3.85;1.35;;;10.60;95.30;;;;;;4950283;28;20042;-66
2022/03/17 07:51:42;;;;;;;8.63;1.92;;;10.60;95.30;;;;;;4952074;28;20031;-65
2022/03/17 07:54:09;;;;;;;12.50;2.45;;;10.60;95.20;;;;;;5009464;28;20407;-65
2022/03/17 07:56:37;;;;;;;5.78;1.40;;;10.60;95.20;;;;;;4950086;28;20031;-65
2022/03/17 07:59:02;;;;;;;2.65;0.90;;;10.60;95.10;;;;;;4952028;28;20143;-65
2022/03/17 08:01:28;;;;;;;3.53;1.38;;;10.60;95.10;;;;;;4952360;28;20118;-65
2022/03/17 08:03:54;;;;;;;4.30;1.60;;;10.60;95.10;;;;;;4951380;28;20122;-65
2022/03/17 08:06:25;;;;;;;10.00;1.95;;;10.50;95.10;;;;;;4951204;28;20039;-65
2022/03/17 08:08:52;;;;;;;5.60;1.23;;;10.50;94.90;;;;;;4962029;28;20479;-66
2022/03/17 08:11:17;;;;;;;3.35;0.90;;;10.50;95.10;;;;;;4951194;28;20047;-66
2022/03/17 08:13:45;;;;;;;5.93;1.30;;;10.50;95.10;;;;;;5012703;28;20039;-68
2022/03/17 08:16:12;;;;;;;7.07;1.83;;;10.60;95.10;;;;;;4932930;28;20486;-66
2022/03/17 08:18:38;;;;;;;12.80;1.63;;;10.60;95.00;;;;;;4959499;28;20039;-65
2022/03/17 08:21:04;;;;;;;8.93;1.60;;;10.60;94.30;;;;;;4972101;28;20065;-65
2022/03/17 08:23:30;;;;;;;6.78;1.02;;;10.50;94.60;;;;;;4978037;28;20086;-65
2022/03/17 08:25:55;;;;;;;15.02;2.67;;;10.50;94.80;;;;;;4949340;28;20165;-65
2022/03/17 08:28:21;;;;;;;11.35;2.13;;;10.60;94.90;;;;;;4937553;28;20046;-65
2022/03/17 08:30:47;;;;;;;8.95;1.63;;;10.50;94.70;;;;;;4947516;28;20031;-65
2022/03/17 08:33:23;;;;;;;8.73;1.27;;;10.50;94.90;;;;;;5002124;28;20051;-65
2022/03/17 08:35:48;;;;;;;18.77;3.13;;;10.50;94.90;;;;;;4954760;28;20029;-65
2022/03/17 08:38:14;;;;;;;9.90;2.40;;;10.50;94.90;;;;;;5015232;28;20021;-66
2022/03/17 08:40:40;;;;;;;11.63;2.65;;;10.50;94.70;;;;;;4995531;28;20034;-65
2022/03/17 08:43:08;;;;;;;12.02;2.15;;;10.50;94.80;;;;;;5003382;28;20042;-65
2022/03/17 08:51:03;;;;;;;13.10;2.55;;;10.40;94.90;;;;;;4958257;28;20493;-65
2022/03/17 08:53:29;;;;;;;9.90;1.90;;;10.40;94.50;;;;;;5010451;28;20080;-65
2022/03/17 08:55:54;;;;;;;12.25;2.05;;;10.40;94.50;;;;;;4983963;28;20035;-65
2022/03/17 08:58:23;;;;;;;16.55;2.50;;;10.40;94.30;;;;;;4950173;28;20116;-66
2022/03/17 09:00:49;;;;;;;10.75;2.15;;;10.40;94.20;;;;;;4949110;28;20127;-66
2022/03/17 09:03:16;;;;;;;6.88;1.15;;;10.40;94.50;;;;;;4951411;28;20833;-66
2022/03/17 09:05:42;;;;;;;4.20;1.50;;;10.40;94.50;;;;;;4951261;28;20058;-65
2022/03/17 09:08:08;;;;;;;8.32;1.85;;;10.40;94.10;;;;;;4946340;28;20036;-66
2022/03/17 09:10:36;;;;;;;9.02;1.42;;;10.30;94.10;;;;;;4931684;28;20574;-66
2022/03/17 09:13:12;;;;;;;7.20;1.60;;;10.40;94.30;;;;;;4947971;28;20047;-66
2022/03/17 09:15:40;;;;;;;0.50;0.50;;;10.40;94.30;;;;;;4950188;28;20489;-66
2022/03/17 09:18:08;;;;;;;7.70;2.05;;;10.30;94.10;;;;;;4950623;28;20102;-66
2022/03/17 09:20:35;;;;;;;6.78;1.15;;;10.40;94.00;;;;;;4949779;28;20101;-66
2022/03/17 09:23:02;;;;;;;2.58;0.88;;;10.40;93.50;;;;;;4951073;28;20113;-66
2022/03/17 09:25:29;;;;;;;9.45;2.00;;;10.40;94.00;;;;;;4938520;28;20040;-65
2022/03/17 09:27:55;;;;;;;13.02;2.28;;;10.40;93.80;;;;;;4950146;28;20039;-66
2022/03/17 09:30:22;;;;;;;5.55;1.10;;;10.40;92.70;;;;;;4949643;28;20102;-66
2022/03/17 09:32:52;;;;;;;7.38;1.77;;;10.40;93.40;;;;;;4950969;28;20090;-66
2022/03/17 09:35:18;;;;;;;13.52;1.77;;;10.50;92.80;;;;;;4949273;28;20042;-66
2022/03/17 09:37:44;;;;;;;11.30;2.22;;;10.50;92.70;;;;;;4952627;28;20039;-66
2022/03/17 09:40:11;;;;;;;16.98;2.70;;;10.60;92.10;;;;;;5001005;28;20093;-66
2022/03/17 09:42:38;;;;;;;6.60;1.33;;;10.50;92.30;;;;;;4983997;28;20114;-66
2022/03/17 09:45:05;;;;;;;7.78;1.85;;;10.60;92.60;;;;;;4938151;28;20027;-66
2022/03/17 09:47:37;;;;;;;10.50;1.42;;;10.60;93.10;;;;;;4940059;28;20063;-66
2022/03/17 09:50:04;;;;;;;10.68;1.83;;;10.60;93.50;;;;;;4936165;28;20363;-66
2022/03/17 09:52:31;;;;;;;20.38;2.53;;;10.60;93.60;;;;;;4952910;28;20096;-66
2022/03/17 09:54:57;;;;;;;15.60;1.30;;;10.70;93.00;;;;;;4953397;28;20039;-66
2022/03/17 09:57:23;;;;;;;8.07;2.03;;;10.60;93.40;;;;;;4949751;28;20442;-66
2022/03/17 09:59:53;;;;;;;11.75;2.08;;;10.60;93.50;;;;;;4950446;28;20079;-66
2022/03/17 10:02:19;;;;;;;11.23;2.08;;;10.70;92.90;;;;;;4937166;28;20453;-66
2022/03/17 10:04:50;;;;;;;7.47;1.73;;;10.70;92.60;;;;;;4949828;28;20027;-66
2022/03/17 10:07:21;;;;;;;4.85;1.40;;;10.70;93.00;;;;;;4950370;28;20029;-66
2022/03/17 10:09:48;;;;;;;6.95;1.70;;;10.70;93.30;;;;;;4949546;28;20047;-66
2022/03/17 10:12:16;;;;;;;24.00;2.95;;;10.70;93.20;;;;;;4949068;28;20059;-70
2022/03/17 10:14:47;;;;;;;16.52;2.42;;;10.70;93.30;;;;;;4950285;28;20677;-66
2022/03/17 10:17:37;;;;;;;4.40;1.60;;;10.80;93.70;;;;;;4949266;28;20471;-68
2022/03/17 10:20:28;;;;;;;13.20;2.05;;;10.80;93.80;;;;;;4977955;28;20053;-67
2022/03/17 10:23:01;;;;;;;10.50;2.33;;;10.80;93.50;;;;;;4965139;28;20027;-66
2022/03/17 10:25:31;;;;;;;4.32;1.35;;;10.80;93.50;;;;;;4998469;28;20045;-67
2022/03/17 10:27:58;;;;;;;14.18;2.08;;;10.80;93.60;;;;;;4970321;28;20110;-66
2022/03/17 10:30:27;;;;;;;9.85;2.08;;;10.80;93.50;;;;;;4987866;28;20384;-66
2022/03/17 10:32:57;;;;;;;5.65;1.85;;;10.80;93.60;;;;;;5005740;28;20100;-66
2022/03/17 10:35:24;;;;;;;16.95;3.10;;;10.80;93.50;;;;;;4984043;28;20022;-66
2022/03/17 10:37:50;;;;;;;12.98;2.35;;;10.90;93.70;;;;;;4982493;28;20057;-66
2022/03/17 10:40:16;;;;;;;13.25;2.50;;;11.00;93.80;;;;;;4998152;28;20507;-66
2022/03/17 10:42:41;;;;;;;15.43;2.30;;;10.90;93.50;;;;;;4982595;28;20142;-66
2022/03/17 10:45:08;;;;;;;6.82;1.75;;;10.90;93.70;;;;;;4972792;28;20039;-66
2022/03/17 10:47:37;;;;;;;7.93;2.53;;;10.90;93.80;;;;;;5005161;28;20031;-66
2022/03/17 10:50:18;;;;;;;6.38;1.75;;;10.90;93.40;;;;;;4965693;28;20043;-70
2022/03/17 10:52:49;;;;;;;12.27;1.48;;;10.90;93.70;;;;;;4942172;28;20036;-67
2022/03/17 10:55:19;;;;;;;13.13;1.52;;;10.90;93.60;;;;;;5005790;28;20031;-66
2022/03/17 10:57:45;;;;;;;3.90;1.08;;;11.00;93.50;;;;;;4997535;28;20030;-67
2022/03/17 11:00:25;;;;;;;5.68;1.40;;;11.00;93.70;;;;;;5008438;28;20048;-67
2022/03/17 11:02:58;;;;;;;15.10;2.40;;;11.00;94.00;;;;;;4979942;28;20029;-67
2022/03/17 11:05:27;;;;;;;6.10;1.70;;;11.00;93.50;;;;;;4988600;28;20088;-67
2022/03/17 11:07:55;;;;;;;7.05;1.42;;;11.10;93.90;;;;;;5012100;28;20402;-67
2022/03/17 11:10:22;;;;;;;7.47;1.48;;;11.10;93.80;;;;;;4985136;28;20050;-67
2022/03/17 11:12:50;;;;;;;11.25;2.60;;;11.20;93.70;;;;;;5012793;28;20095;-67
2022/03/17 11:15:28;;;;;;;7.35;2.25;;;11.20;93.70;;;;;;4989096;28;20385;-66
2022/03/17 11:18:02;;;;;;;13.23;2.58;;;11.20;93.90;;;;;;5002495;28;20072;-66
2022/03/17 11:20:28;;;;;;;7.22;1.80;;;11.30;94.00;;;;;;4976272;28;20061;-67
2022/03/17 11:23:05;;;;;;;7.57;1.38;;;11.30;93.80;;;;;;4980810;28;20042;-67
2022/03/17 11:25:34;;;;;;;10.52;3.00;;;11.40;94.00;;;;;;4998314;28;20038;-66
2022/03/17 11:28:02;;;;;;;6.97;1.75;;;11.40;94.10;;;;;;4993093;28;20107;-67
2022/03/17 11:30:45;;;;;;;9.25;2.65;;;11.40;92.90;;;;;;5001875;28;20043;-67
2022/03/17 11:33:26;;;;;;;2.40;0.65;;;11.50;93.30;;;;;;4983370;28;20476;-66
2022/03/17 11:35:54;;;;;;;9.63;2.15;;;11.60;93.60;;;;;;5016892;28;20046;-66
2022/03/17 11:38:26;;;;;;;7.28;1.90;;;11.60;93.50;;;;;;4971348;28;20751;-67
2022/03/17 11:41:12;;;;;;;13.10;1.98;;;11.60;93.30;;;;;;4972510;28;20403;-67
2022/03/17 11:43:41;;;;;;;6.80;1.70;;;11.70;93.70;;;;;;4959512;28;20031;-66
2022/03/17 11:46:42;;;;;;;6.57;1.77;;;11.70;93.80;;;;;;4968512;28;20037;-66
2022/03/17 11:49:19;;;;;;;5.00;1.30;;;11.60;93.70;;;;;;4976335;28;20377;-66
2022/03/17 11:51:59;;;;;;;2.13;1.10;;;11.70;93.70;;;;;;4973392;28;20145;-66
2022/03/17 11:54:25;;;;;;;2.30;0.85;;;11.70;93.60;;;;;;5017221;28;20040;-66
2022/03/17 11:56:54;;;;;;;5.22;1.80;;;11.70;93.00;;;;;;4951998;28;20675;-66
2022/03/17 11:59:41;;;;;;;9.68;2.28;;;11.70;93.30;;;;;;4946066;28;20055;-66
2022/03/17 12:02:12;;;;;;;10.27;1.77;;;11.80;93.40;;;;;;4960800;28;20047;-66
2022/03/17 12:04:47;;;;;;;6.65;1.20;;;11.80;93.30;;;;;;4952220;28;20039;-66
2022/03/17 12:07:14;;;;;;;12.93;2.50;;;11.90;93.60;;;;;;4939452;28;20043;-66
2022/03/17 12:09:40;;;;;;;7.57;1.83;;;11.90;93.50;;;;;;4977369;28;20031;-66
2022/03/17 12:12:23;;;;;;;11.27;1.70;;;11.90;93.50;;;;;;4959074;28;20043;-66
2022/03/17 12:14:58;;;;;;;13.65;2.20;;;12.00;93.60;;;;;;4993594;28;20106;-66
2022/03/17 12:17:26;;;;;;;8.98;2.22;;;12.00;93.50;;;;;;4992245;28;20131;-66
2022/03/17 12:20:11;;;;;;;8.98;2.50;;;12.10;93.40;;;;;;4994099;28;20466;-66
2022/03/17 12:22:43;;;;;;;6.68;1.38;;;12.00;93.30;;;;;;4967052;28;20056;-67
2022/03/17 12:25:13;;;;;;;4.75;1.40;;;12.00;93.00;;;;;;5019289;28;20116;-65
2022/03/17 12:27:40;;;;;;;11.00;1.42;;;12.00;93.30;;;;;;4981033;28;20045;-66
2022/03/17 12:30:06;;;;;;;12.70;2.47;;;12.10;93.30;;;;;;4967417;28;20506;-65
2022/03/17 12:32:52;;;;;;;11.15;2.42;;;12.10;92.60;;;;;;4993751;28;20108;-65
2022/03/17 12:35:23;;;;;;;7.93;2.55;;;12.20;91.90;;;;;;4991478;28;20037;-65
2022/03/17 12:37:49;;;;;;;11.07;2.70;;;12.20;92.10;;;;;;4977126;28;20039;-65
2022/03/17 12:40:17;;;;;;;4.43;0.85;;;12.30;92.70;;;;;;4982910;28;20039;-65
2022/03/17 12:42:45;;;;;;;8.05;2.03;;;12.30;92.80;;;;;;4970164;28;20043;-65
2022/03/17 12:45:22;;;;;;;3.25;1.27;;;12.30;92.80;;;;;;4992282;28;20023;-65
2022/03/17 12:47:56;;;;;;;14.77;2.47;;;12.30;92.80;;;;;;4957252;28;20114;-65
2022/03/17 12:50:23;;;;;;;6.72;0.98;;;12.40;92.10;;;;;;4986368;28;20033;-65
2022/03/17 12:52:50;;;;;;;6.30;1.58;;;12.40;92.70;;;;;;4985718;28;20079;-65
2022/03/17 12:55:19;;;;;;;2.63;0.95;;;12.50;92.80;;;;;;4961493;28;20123;-65
2022/03/17 12:57:47;;;;;;;10.90;1.80;;;12.50;92.90;;;;;;4998665;28;20033;-65
2022/03/17 13:00:15;;;;;;;2.33;1.17;;;12.50;92.10;;;;;;4993020;28;20104;-65